Time;durP1;ratioP1;P1;durP2;ratioP2;P2;SDS_P1;SDS_P2;PMS_P1;PMS_P2;Temp;Humidity;BMP_temperature;BMP_pressure;BME280_temperature;BME280_humidity;BME280_pressure;Samples;Min_cycle;Max_cycle;Signal;HPM_P1;HPM_P2
2022/07/09 00:01:39;;;;;;;0.00;0.00;;;17.20;87.00;;;;;;4976007;28;20035;-67
2022/07/09 00:04:07;;;;;;;0.00;0.00;;;17.20;87.00;;;;;;4973997;28;20078;-66
2022/07/09 00:06:33;;;;;;;0.00;0.00;;;17.20;86.90;;;;;;4988665;28;20084;-66
2022/07/09 00:08:59;;;;;;;0.00;0.00;;;17.20;86.90;;;;;;4985191;28;20070;-66
2022/07/09 00:11:24;;;;;;;0.10;0.10;;;17.30;86.80;;;;;;4973533;28;20054;-67
2022/07/09 00:13:50;;;;;;;0.00;0.00;;;17.30;87.00;;;;;;4982121;28;20047;-67
2022/07/09 00:16:16;;;;;;;0.00;0.00;;;17.20;87.40;;;;;;4978504;28;20523;-67
2022/07/09 00:18:41;;;;;;;0.00;0.00;;;17.20;87.30;;;;;;4992250;28;20054;-67
2022/07/09 00:21:08;;;;;;;0.00;0.00;;;17.10;87.60;;;;;;4979702;28;20065;-66
2022/07/09 00:23:34;;;;;;;0.15;0.15;;;17.10;87.70;;;;;;4984015;28;20042;-66
2022/07/09 00:25:59;;;;;;;0.00;0.00;;;17.00;88.20;;;;;;4992503;28;20130;-67
2022/07/09 00:28:25;;;;;;;0.00;0.00;;;16.90;88.50;;;;;;4984469;28;20045;-66
2022/07/09 00:30:51;;;;;;;0.00;0.00;;;16.90;88.70;;;;;;4983717;28;20419;-66
2022/07/09 00:33:16;;;;;;;0.47;0.43;;;17.00;88.50;;;;;;4987967;28;20049;-66
2022/07/09 00:35:42;;;;;;;0.00;0.00;;;16.90;88.50;;;;;;4981904;28;20105;-66
2022/07/09 00:38:08;;;;;;;0.00;0.00;;;16.90;88.50;;;;;;4976964;28;20046;-67
2022/07/09 00:40:34;;;;;;;0.00;0.00;;;17.00;88.40;;;;;;4979135;28;20089;-66
2022/07/09 00:43:00;;;;;;;0.00;0.00;;;17.00;88.40;;;;;;4981439;28;20038;-67
2022/07/09 00:45:26;;;;;;;0.00;0.00;;;17.00;88.40;;;;;;4999072;28;20041;-67
2022/07/09 00:47:52;;;;;;;0.00;0.00;;;17.00;88.70;;;;;;4988616;28;20047;-67
2022/07/09 00:50:18;;;;;;;0.10;0.10;;;17.00;88.90;;;;;;4990835;28;20054;-66
2022/07/09 00:52:45;;;;;;;3.33;0.82;;;17.00;89.20;;;;;;4972171;28;20055;-67
2022/07/09 00:55:12;;;;;;;0.00;0.00;;;17.00;89.60;;;;;;4989687;28;20165;-67
2022/07/09 00:57:40;;;;;;;0.00;0.00;;;17.00;89.70;;;;;;4992638;28;20053;-67
2022/07/09 01:00:07;;;;;;;0.00;0.00;;;17.00;89.70;;;;;;4986303;28;20046;-67
2022/07/09 01:02:34;;;;;;;0.00;0.00;;;17.10;89.70;;;;;;5000000;28;20121;-67
2022/07/09 01:04:59;;;;;;;0.08;0.08;;;17.00;89.60;;;;;;4991600;28;20112;-66
2022/07/09 01:07:25;;;;;;;0.00;0.00;;;17.10;89.70;;;;;;4989759;28;20073;-66
2022/07/09 01:09:51;;;;;;;0.00;0.00;;;17.00;89.70;;;;;;4979460;28;20424;-67
2022/07/09 01:12:16;;;;;;;0.55;0.45;;;17.00;89.90;;;;;;4978129;28;20070;-66
2022/07/09 01:14:42;;;;;;;0.10;0.10;;;17.00;90.00;;;;;;4990137;28;20049;-67
2022/07/09 01:17:07;;;;;;;0.00;0.00;;;17.00;90.10;;;;;;4990827;28;20507;-67
2022/07/09 01:19:34;;;;;;;0.00;0.00;;;17.00;90.30;;;;;;4972686;28;20481;-67
2022/07/09 01:22:00;;;;;;;0.00;0.00;;;17.00;90.30;;;;;;4982465;28;20129;-67
2022/07/09 01:24:26;;;;;;;0.00;0.00;;;17.00;90.40;;;;;;4972310;28;20130;-67
2022/07/09 01:26:53;;;;;;;0.00;0.00;;;17.00;90.40;;;;;;4977056;28;20053;-67
2022/07/09 01:29:19;;;;;;;0.00;0.00;;;17.00;90.40;;;;;;4994454;28;20388;-67
2022/07/09 01:31:45;;;;;;;0.10;0.10;;;17.00;90.30;;;;;;4991330;28;20046;-66
2022/07/09 01:34:11;;;;;;;0.00;0.00;;;17.10;90.30;;;;;;4990834;28;20053;-67
2022/07/09 01:36:36;;;;;;;0.43;0.22;;;17.00;90.30;;;;;;4977088;28;20049;-67
2022/07/09 01:39:03;;;;;;;0.20;0.20;;;17.00;90.30;;;;;;4991196;28;20065;-67
2022/07/09 01:41:28;;;;;;;0.00;0.00;;;17.00;90.30;;;;;;4991394;28;20407;-67
2022/07/09 01:43:54;;;;;;;0.00;0.00;;;17.00;90.20;;;;;;4990204;28;20042;-67
2022/07/09 01:46:19;;;;;;;0.00;0.00;;;17.00;90.10;;;;;;4991403;28;20077;-66
2022/07/09 01:48:45;;;;;;;1.30;1.02;;;17.10;90.00;;;;;;4987934;28;20523;-66
2022/07/09 01:51:13;;;;;;;0.47;0.47;;;17.00;90.00;;;;;;4972120;28;20054;-67
2022/07/09 01:53:39;;;;;;;0.40;0.40;;;17.00;90.10;;;;;;4977985;28;20617;-66
2022/07/09 01:56:09;;;;;;;0.00;0.00;;;17.00;90.00;;;;;;4971769;28;20059;-67
2022/07/09 01:58:35;;;;;;;0.00;0.00;;;17.00;89.90;;;;;;4971479;28;20039;-67
2022/07/09 02:01:02;;;;;;;0.00;0.00;;;17.00;89.90;;;;;;4977203;28;20084;-67
2022/07/09 02:03:28;;;;;;;0.00;0.00;;;16.90;89.90;;;;;;4993460;28;20674;-66
2022/07/09 02:05:53;;;;;;;0.00;0.00;;;17.00;89.90;;;;;;4997925;28;20095;-66
2022/07/09 02:08:19;;;;;;;0.00;0.00;;;16.90;89.90;;;;;;4998333;28;20054;-67
2022/07/09 02:10:45;;;;;;;0.10;0.10;;;16.90;89.90;;;;;;4998397;28;20522;-67
2022/07/09 02:13:12;;;;;;;0.00;0.00;;;16.90;89.90;;;;;;4994996;28;20077;-66
2022/07/09 02:15:38;;;;;;;0.00;0.00;;;16.90;89.70;;;;;;4995361;28;20598;-66
2022/07/09 02:18:04;;;;;;;0.00;0.00;;;16.90;89.80;;;;;;4998431;28;20141;-66
2022/07/09 02:20:30;;;;;;;0.10;0.10;;;16.90;89.80;;;;;;5001021;28;20041;-66
2022/07/09 02:22:56;;;;;;;0.00;0.00;;;16.80;89.70;;;;;;4995328;28;20049;-66
2022/07/09 02:25:22;;;;;;;0.00;0.00;;;16.90;89.80;;;;;;4996897;28;20062;-66
2022/07/09 02:27:47;;;;;;;0.00;0.00;;;16.90;89.70;;;;;;5001348;28;20534;-66
2022/07/09 02:30:13;;;;;;;0.00;0.00;;;16.90;89.70;;;;;;4998313;28;20104;-66
2022/07/09 02:32:39;;;;;;;0.00;0.00;;;16.90;89.90;;;;;;4993536;28;20120;-66
2022/07/09 02:35:05;;;;;;;0.00;0.00;;;16.90;89.80;;;;;;4996400;28;20039;-66
2022/07/09 02:37:32;;;;;;;0.00;0.00;;;17.00;89.80;;;;;;4995858;28;20039;-66
2022/07/09 02:39:58;;;;;;;0.00;0.00;;;17.00;89.70;;;;;;5000532;28;20050;-66
2022/07/09 02:42:23;;;;;;;0.20;0.20;;;17.00;89.70;;;;;;4998784;28;20632;-66
2022/07/09 02:44:49;;;;;;;0.00;0.00;;;16.90;89.80;;;;;;5002248;28;20042;-66
2022/07/09 02:47:15;;;;;;;0.00;0.00;;;17.00;89.70;;;;;;5000402;28;20178;-66
2022/07/09 02:49:40;;;;;;;0.00;0.00;;;17.00;89.60;;;;;;4992807;28;20053;-67
2022/07/09 02:52:06;;;;;;;0.00;0.00;;;17.00;89.70;;;;;;4996113;28;20053;-67
2022/07/09 02:54:33;;;;;;;0.00;0.00;;;17.00;89.60;;;;;;4996516;28;20042;-67
2022/07/09 02:56:59;;;;;;;0.55;0.55;;;17.00;89.50;;;;;;4998698;28;20042;-66
2022/07/09 02:59:25;;;;;;;0.00;0.00;;;16.90;89.40;;;;;;4994471;28;20061;-67
2022/07/09 03:01:51;;;;;;;0.00;0.00;;;16.90;89.50;;;;;;4999715;28;20049;-67
2022/07/09 03:04:17;;;;;;;0.00;0.00;;;16.90;89.50;;;;;;4997559;28;20054;-68
2022/07/09 03:06:42;;;;;;;0.00;0.00;;;16.90;89.60;;;;;;5001732;28;20399;-67
2022/07/09 03:09:08;;;;;;;0.00;0.00;;;16.80;89.70;;;;;;4998009;28;20422;-67
2022/07/09 03:11:34;;;;;;;0.00;0.00;;;16.80;89.70;;;;;;4995738;28;20492;-66
2022/07/09 03:13:59;;;;;;;0.00;0.00;;;16.80;89.80;;;;;;4991038;28;20039;-67
2022/07/09 03:16:25;;;;;;;0.00;0.00;;;16.70;89.90;;;;;;4998605;28;20057;-67
2022/07/09 03:18:51;;;;;;;0.03;0.03;;;16.80;89.90;;;;;;4995940;28;20045;-67
2022/07/09 03:21:17;;;;;;;0.00;0.00;;;16.80;89.80;;;;;;4998385;28;20127;-67
2022/07/09 03:23:42;;;;;;;0.00;0.00;;;16.80;89.70;;;;;;4995058;28;20533;-67
2022/07/09 03:26:08;;;;;;;0.00;0.00;;;16.70;89.70;;;;;;4992763;28;20050;-67
2022/07/09 03:28:34;;;;;;;0.00;0.00;;;16.80;89.70;;;;;;5002484;28;20038;-66
2022/07/09 03:31:00;;;;;;;0.00;0.00;;;16.80;89.60;;;;;;4996988;28;20053;-67
2022/07/09 03:33:25;;;;;;;0.00;0.00;;;16.70;89.70;;;;;;4999893;28;20046;-66
2022/07/09 03:35:53;;;;;;;0.00;0.00;;;16.70;89.60;;;;;;4990145;28;20511;-67
2022/07/09 03:38:19;;;;;;;0.00;0.00;;;16.80;89.60;;;;;;4992716;28;20046;-67
2022/07/09 03:40:45;;;;;;;0.00;0.00;;;16.80;89.50;;;;;;5000992;28;20048;-67
2022/07/09 03:43:10;;;;;;;0.00;0.00;;;16.80;89.50;;;;;;5000499;28;20422;-67
2022/07/09 03:45:36;;;;;;;0.00;0.00;;;16.70;89.60;;;;;;4997125;28;20097;-67
2022/07/09 03:48:02;;;;;;;0.00;0.00;;;16.70;89.50;;;;;;4998510;28;20053;-67
2022/07/09 03:50:28;;;;;;;0.05;0.05;;;16.70;89.40;;;;;;4996758;28;20046;-67
2022/07/09 03:52:53;;;;;;;0.00;0.00;;;16.80;89.50;;;;;;4991588;28;20046;-67
2022/07/09 03:55:19;;;;;;;0.03;0.03;;;16.80;89.40;;;;;;4998229;28;20114;-67
2022/07/09 03:57:45;;;;;;;0.00;0.00;;;16.70;89.40;;;;;;4993864;28;20571;-67
2022/07/09 04:00:11;;;;;;;0.05;0.05;;;16.80;89.40;;;;;;4995287;28;20089;-67
2022/07/09 04:02:36;;;;;;;0.00;0.00;;;16.80;89.40;;;;;;4993290;28;20562;-67
2022/07/09 04:05:02;;;;;;;0.28;0.28;;;16.80;89.20;;;;;;5001643;28;20046;-66
2022/07/09 04:07:28;;;;;;;0.00;0.00;;;16.80;89.20;;;;;;4992450;28;20051;-67
2022/07/09 04:09:53;;;;;;;0.00;0.00;;;16.80;89.20;;;;;;4996960;28;20128;-67
2022/07/09 04:12:20;;;;;;;0.00;0.00;;;16.80;89.20;;;;;;4983730;28;20447;-67
2022/07/09 04:14:46;;;;;;;0.00;0.00;;;16.80;89.20;;;;;;4996587;28;20041;-66
2022/07/09 04:17:12;;;;;;;0.00;0.00;;;16.80;89.10;;;;;;4993186;28;20120;-66
2022/07/09 04:19:37;;;;;;;0.00;0.00;;;16.80;89.00;;;;;;5014335;28;20142;-67
2022/07/09 04:22:03;;;;;;;0.00;0.00;;;16.80;89.00;;;;;;4995459;28;20046;-66
2022/07/09 04:24:29;;;;;;;0.00;0.00;;;16.80;89.00;;;;;;4994559;28;20047;-67
2022/07/09 04:26:55;;;;;;;0.00;0.00;;;16.80;88.90;;;;;;5000518;28;20065;-67
2022/07/09 04:29:21;;;;;;;0.00;0.00;;;16.80;88.80;;;;;;5000729;28;20041;-67
2022/07/09 04:31:46;;;;;;;0.00;0.00;;;16.90;88.90;;;;;;4999019;28;20422;-67
2022/07/09 04:34:12;;;;;;;0.00;0.00;;;16.80;88.80;;;;;;4998849;28;20088;-67
2022/07/09 04:36:38;;;;;;;0.00;0.00;;;16.80;88.70;;;;;;5000278;28;20100;-67
2022/07/09 04:39:04;;;;;;;0.00;0.00;;;16.80;88.70;;;;;;5001646;28;20034;-67
2022/07/09 04:41:29;;;;;;;0.00;0.00;;;16.90;88.70;;;;;;4982736;28;20104;-67
2022/07/09 04:43:55;;;;;;;0.00;0.00;;;16.80;88.80;;;;;;4994199;28;20046;-66
2022/07/09 04:46:25;;;;;;;0.00;0.00;;;16.90;88.80;;;;;;4998549;28;20042;-66
2022/07/09 04:48:50;;;;;;;0.05;0.05;;;16.90;88.70;;;;;;5003746;28;20051;-66
2022/07/09 04:51:16;;;;;;;0.20;0.20;;;16.90;88.70;;;;;;4994851;28;20042;-66
2022/07/09 04:53:42;;;;;;;0.00;0.00;;;16.90;88.70;;;;;;5002104;28;20050;-66
2022/07/09 04:56:07;;;;;;;0.00;0.00;;;16.90;88.60;;;;;;4988688;28;20031;-66
2022/07/09 04:58:33;;;;;;;0.00;0.00;;;16.90;88.60;;;;;;4984541;28;20708;-67
2022/07/09 05:00:59;;;;;;;0.00;0.00;;;17.00;88.70;;;;;;4978980;28;20399;-66
2022/07/09 05:03:25;;;;;;;0.00;0.00;;;16.90;88.60;;;;;;4990198;28;20046;-66
2022/07/09 05:05:51;;;;;;;0.00;0.00;;;17.00;88.80;;;;;;4980285;28;20049;-67
2022/07/09 05:08:18;;;;;;;0.00;0.00;;;17.10;88.70;;;;;;4986307;28;20042;-68
2022/07/09 05:10:44;;;;;;;0.00;0.00;;;17.10;88.60;;;;;;4987116;28;20503;-68
2022/07/09 05:13:10;;;;;;;0.00;0.00;;;17.10;88.50;;;;;;4973445;28;20050;-67
2022/07/09 05:15:36;;;;;;;0.00;0.00;;;17.10;88.60;;;;;;4980131;28;20097;-67
2022/07/09 05:18:01;;;;;;;0.00;0.00;;;17.10;88.50;;;;;;4990679;28;20054;-68
2022/07/09 05:20:27;;;;;;;0.28;0.28;;;17.20;88.40;;;;;;4991500;28;21100;-68
2022/07/09 05:22:53;;;;;;;0.00;0.00;;;17.30;88.30;;;;;;4986773;28;20038;-68
2022/07/09 05:25:19;;;;;;;0.00;0.00;;;17.30;88.20;;;;;;4986866;28;20164;-68
2022/07/09 05:27:46;;;;;;;0.10;0.10;;;17.30;88.20;;;;;;4991061;28;20054;-68
2022/07/09 05:30:15;;;;;;;0.00;0.00;;;17.40;88.10;;;;;;4985494;28;20093;-67
2022/07/09 05:32:42;;;;;;;0.00;0.00;;;17.40;88.00;;;;;;4977307;28;20066;-67
2022/07/09 05:35:08;;;;;;;0.00;0.00;;;17.40;87.90;;;;;;4984839;28;20518;-68
2022/07/09 05:37:39;;;;;;;0.00;0.00;;;17.50;87.80;;;;;;4954272;28;20078;-68
2022/07/09 05:40:06;;;;;;;0.00;0.00;;;17.50;87.80;;;;;;4971290;28;20065;-68
2022/07/09 05:42:32;;;;;;;0.00;0.00;;;17.50;87.80;;;;;;4971030;28;20459;-68
2022/07/09 05:44:59;;;;;;;0.00;0.00;;;17.50;87.80;;;;;;4971988;28;20035;-68
2022/07/09 05:47:25;;;;;;;0.00;0.00;;;17.60;87.80;;;;;;4978078;28;20125;-68
2022/07/09 05:49:50;;;;;;;0.00;0.00;;;17.60;87.70;;;;;;4972841;28;20121;-68
2022/07/09 05:52:16;;;;;;;0.77;0.70;;;17.60;87.80;;;;;;4988389;28;20047;-68
2022/07/09 05:54:41;;;;;;;0.10;0.10;;;17.60;88.00;;;;;;4985671;28;20046;-68
2022/07/09 05:57:07;;;;;;;0.10;0.10;;;17.60;88.00;;;;;;4990189;28;20062;-67
2022/07/09 05:59:33;;;;;;;0.00;0.00;;;17.70;88.00;;;;;;4989655;28;20034;-68
2022/07/09 06:01:58;;;;;;;0.00;0.00;;;17.70;87.90;;;;;;4987571;28;20113;-68
2022/07/09 06:04:24;;;;;;;0.20;0.20;;;17.80;87.90;;;;;;4988437;28;20042;-68
2022/07/09 06:06:49;;;;;;;0.00;0.00;;;17.70;87.90;;;;;;4983971;28;20475;-68
2022/07/09 06:09:15;;;;;;;0.03;0.03;;;17.80;87.90;;;;;;4987992;28;20393;-66
2022/07/09 06:11:40;;;;;;;0.00;0.00;;;17.80;87.80;;;;;;4979486;28;20142;-67
2022/07/09 06:14:06;;;;;;;0.10;0.10;;;17.80;87.80;;;;;;4988568;28;20042;-66
2022/07/09 06:16:32;;;;;;;0.00;0.00;;;17.80;87.80;;;;;;4987295;28;20180;-66
2022/07/09 06:18:57;;;;;;;0.00;0.00;;;17.90;87.60;;;;;;4988674;28;20050;-66
2022/07/09 06:21:23;;;;;;;0.00;0.00;;;17.90;87.30;;;;;;4957228;28;20495;-66
2022/07/09 06:23:49;;;;;;;0.00;0.00;;;17.90;87.30;;;;;;4971139;28;20046;-66
2022/07/09 06:26:15;;;;;;;0.00;0.00;;;17.90;87.10;;;;;;4980472;28;20043;-68
2022/07/09 06:28:40;;;;;;;0.00;0.00;;;18.00;87.10;;;;;;4977467;28;20039;-68
2022/07/09 06:31:06;;;;;;;0.00;0.00;;;18.00;87.10;;;;;;4988758;28;20427;-66
2022/07/09 06:33:32;;;;;;;0.00;0.00;;;18.00;86.90;;;;;;4985353;28;20042;-67
2022/07/09 06:35:57;;;;;;;0.00;0.00;;;18.00;86.80;;;;;;4982988;28;20050;-66
2022/07/09 06:38:23;;;;;;;0.00;0.00;;;18.00;87.00;;;;;;4990267;28;20042;-67
2022/07/09 06:40:48;;;;;;;0.00;0.00;;;18.00;87.00;;;;;;4985522;28;20047;-66
2022/07/09 06:43:14;;;;;;;0.10;0.10;;;18.10;86.90;;;;;;4980170;28;20085;-67
2022/07/09 06:45:40;;;;;;;0.00;0.00;;;18.10;86.90;;;;;;4983605;28;20444;-67
2022/07/09 06:48:05;;;;;;;0.00;0.00;;;18.20;86.60;;;;;;4986436;28;20092;-67
2022/07/09 06:50:31;;;;;;;0.00;0.00;;;18.10;86.30;;;;;;4993204;28;20083;-67
2022/07/09 06:52:56;;;;;;;0.00;0.00;;;18.20;86.00;;;;;;4984358;28;20039;-66
2022/07/09 06:55:22;;;;;;;0.00;0.00;;;18.20;85.90;;;;;;4977299;28;20054;-67
2022/07/09 06:57:48;;;;;;;0.00;0.00;;;18.20;86.00;;;;;;4982994;28;20863;-67
2022/07/09 07:00:14;;;;;;;0.00;0.00;;;18.20;85.50;;;;;;4988678;28;20184;-66
2022/07/09 07:02:39;;;;;;;0.00;0.00;;;18.20;85.50;;;;;;4988661;28;20393;-67
2022/07/09 07:05:06;;;;;;;0.00;0.00;;;18.20;85.60;;;;;;4976732;28;20053;-67
2022/07/09 07:07:32;;;;;;;0.00;0.00;;;18.20;85.50;;;;;;4988371;28;20042;-67
2022/07/09 07:09:57;;;;;;;0.00;0.00;;;18.20;85.50;;;;;;4996868;28;20135;-67
2022/07/09 07:12:23;;;;;;;0.00;0.00;;;18.20;84.90;;;;;;4991667;28;20177;-67
2022/07/09 07:14:48;;;;;;;0.00;0.00;;;18.20;84.90;;;;;;4989231;28;20039;-67
2022/07/09 07:17:14;;;;;;;0.47;0.47;;;18.30;84.90;;;;;;4986029;28;20046;-68
2022/07/09 07:19:41;;;;;;;0.00;0.00;;;18.20;84.10;;;;;;4989267;28;20097;-67
2022/07/09 07:22:07;;;;;;;0.00;0.00;;;18.20;84.30;;;;;;4983110;28;20058;-67
2022/07/09 07:24:32;;;;;;;0.00;0.00;;;18.20;84.20;;;;;;4984241;28;20403;-68
2022/07/09 07:26:58;;;;;;;0.00;0.00;;;18.30;84.20;;;;;;4982037;28;20063;-67
2022/07/09 07:29:24;;;;;;;0.00;0.00;;;18.20;84.30;;;;;;4975970;28;20515;-67
2022/07/09 07:31:50;;;;;;;0.20;0.20;;;18.30;84.20;;;;;;4981659;28;20089;-67
2022/07/09 07:34:17;;;;;;;0.10;0.10;;;18.30;83.90;;;;;;4987491;28;20162;-67
2022/07/09 07:36:43;;;;;;;0.00;0.00;;;18.20;83.80;;;;;;4988169;28;20534;-67
2022/07/09 07:39:09;;;;;;;0.25;0.20;;;18.20;83.70;;;;;;4975826;28;20126;-67
2022/07/09 07:41:34;;;;;;;0.00;0.00;;;18.30;83.50;;;;;;4988392;28;20046;-67
2022/07/09 07:44:00;;;;;;;0.45;0.45;;;18.30;83.20;;;;;;4987624;28;20039;-67
2022/07/09 07:46:25;;;;;;;0.00;0.00;;;18.30;82.90;;;;;;4981686;28;20403;-67
2022/07/09 07:48:51;;;;;;;0.00;0.00;;;18.30;82.80;;;;;;4970448;28;20042;-67
2022/07/09 07:51:17;;;;;;;0.00;0.00;;;18.50;83.00;;;;;;4970183;28;20492;-67
2022/07/09 07:53:42;;;;;;;0.00;0.00;;;18.50;82.40;;;;;;4971351;28;20042;-67
2022/07/09 07:56:08;;;;;;;0.00;0.00;;;18.50;82.20;;;;;;4983612;28;20484;-68
2022/07/09 07:58:35;;;;;;;0.00;0.00;;;18.50;82.00;;;;;;4980244;28;20519;-67
2022/07/09 08:01:00;;;;;;;0.00;0.00;;;18.50;81.80;;;;;;4982341;28;20590;-67
2022/07/09 08:03:26;;;;;;;0.00;0.00;;;18.60;81.80;;;;;;5004160;28;20157;-67
2022/07/09 08:05:52;;;;;;;0.00;0.00;;;18.50;81.20;;;;;;4991402;28;20491;-67
2022/07/09 08:08:21;;;;;;;0.00;0.00;;;18.50;81.30;;;;;;4985789;28;20062;-67
2022/07/09 08:10:48;;;;;;;0.00;0.00;;;18.50;81.60;;;;;;4991178;28;20046;-67
2022/07/09 08:13:14;;;;;;;2.80;1.27;;;18.50;80.70;;;;;;5008714;28;20103;-67
2022/07/09 08:15:40;;;;;;;1.60;0.65;;;18.60;81.70;;;;;;4971283;28;20053;-68
2022/07/09 08:18:08;;;;;;;0.00;0.00;;;18.70;81.30;;;;;;4978931;28;20054;-67
2022/07/09 08:20:36;;;;;;;0.00;0.00;;;18.60;80.50;;;;;;4987800;28;20075;-67
2022/07/09 08:23:02;;;;;;;0.00;0.00;;;18.80;80.90;;;;;;4986149;28;20046;-67
2022/07/09 08:25:28;;;;;;;0.22;0.22;;;19.00;80.70;;;;;;4990577;28;20053;-67
2022/07/09 08:27:53;;;;;;;0.00;0.00;;;18.90;79.10;;;;;;4988530;28;20035;-67
2022/07/09 08:30:19;;;;;;;0.00;0.00;;;18.90;79.40;;;;;;4992640;28;20034;-67
2022/07/09 08:32:45;;;;;;;1.55;0.90;;;18.90;78.70;;;;;;4992597;28;20138;-66
2022/07/09 08:35:11;;;;;;;0.00;0.00;;;19.00;78.60;;;;;;4991969;28;20050;-67
2022/07/09 08:37:37;;;;;;;0.00;0.00;;;18.90;77.60;;;;;;4990978;28;20042;-67
2022/07/09 08:40:03;;;;;;;0.10;0.10;;;18.90;77.50;;;;;;4986752;28;20546;-67
2022/07/09 08:42:28;;;;;;;0.00;0.00;;;18.90;78.10;;;;;;4991917;28;20057;-67
2022/07/09 08:44:54;;;;;;;0.00;0.00;;;18.90;77.90;;;;;;4991834;28;20039;-67
2022/07/09 08:47:21;;;;;;;0.00;0.00;;;19.00;78.10;;;;;;4990821;28;20042;-66
2022/07/09 08:49:48;;;;;;;0.00;0.00;;;19.10;78.50;;;;;;4986286;28;20050;-65
2022/07/09 08:52:15;;;;;;;0.00;0.00;;;19.10;77.80;;;;;;4986770;28;20049;-66
2022/07/09 08:54:42;;;;;;;0.00;0.00;;;19.20;77.90;;;;;;4987249;28;20034;-66
2022/07/09 08:57:08;;;;;;;0.00;0.00;;;19.30;76.80;;;;;;4980210;28;20084;-66
2022/07/09 08:59:34;;;;;;;0.10;0.10;;;19.30;76.50;;;;;;4996481;28;20038;-67
2022/07/09 09:02:09;;;;;;;0.00;0.00;;;19.40;76.30;;;;;;4976620;28;20045;-70
2022/07/09 09:04:39;;;;;;;0.00;0.00;;;19.40;75.10;;;;;;4973243;28;20050;-67
2022/07/09 09:07:18;;;;;;;0.00;0.00;;;19.40;75.10;;;;;;4997693;28;20084;-67
2022/07/09 09:09:45;;;;;;;0.00;0.00;;;19.40;76.10;;;;;;5003211;28;20061;-68
2022/07/09 09:12:12;;;;;;;0.00;0.00;;;19.50;75.20;;;;;;4989929;28;20964;-67
2022/07/09 09:14:37;;;;;;;0.00;0.00;;;19.50;75.80;;;;;;4990407;28;20858;-67
2022/07/09 09:17:11;;;;;;;0.00;0.00;;;19.50;75.80;;;;;;4978078;28;20080;-68
2022/07/09 09:19:40;;;;;;;0.00;0.00;;;19.50;76.10;;;;;;4971264;28;20157;-68
2022/07/09 09:22:07;;;;;;;0.00;0.00;;;19.40;75.80;;;;;;4978105;28;20573;-70
2022/07/09 09:24:34;;;;;;;0.00;0.00;;;19.50;75.60;;;;;;4990448;28;20053;-70
2022/07/09 09:27:00;;;;;;;0.00;0.00;;;19.60;75.60;;;;;;4996845;28;20084;-70
2022/07/09 09:29:26;;;;;;;0.00;0.00;;;19.50;74.60;;;;;;4988089;28;20077;-70
2022/07/09 09:31:52;;;;;;;0.00;0.00;;;19.50;75.20;;;;;;4986839;28;20098;-67
2022/07/09 09:34:19;;;;;;;0.00;0.00;;;19.50;75.50;;;;;;4985689;28;20046;-67
2022/07/09 09:36:52;;;;;;;0.00;0.00;;;19.40;74.40;;;;;;4975101;28;20058;-68
2022/07/09 09:39:20;;;;;;;0.00;0.00;;;19.40;74.60;;;;;;4985403;28;20042;-67
2022/07/09 09:41:47;;;;;;;0.00;0.00;;;19.40;75.30;;;;;;4988161;28;20054;-67
2022/07/09 09:44:15;;;;;;;0.00;0.00;;;19.60;75.30;;;;;;4988719;28;20049;-68
2022/07/09 09:46:42;;;;;;;0.00;0.00;;;19.50;73.70;;;;;;4987649;28;20408;-67
2022/07/09 09:49:09;;;;;;;0.35;0.35;;;19.60;73.00;;;;;;4990184;28;20419;-67
2022/07/09 09:51:36;;;;;;;0.00;0.00;;;19.60;72.80;;;;;;4984953;28;20504;-67
2022/07/09 09:54:03;;;;;;;0.03;0.03;;;19.60;73.40;;;;;;4989388;28;20050;-67
2022/07/09 09:56:30;;;;;;;0.30;0.30;;;19.80;74.20;;;;;;4994716;28;20214;-67
2022/07/09 09:58:57;;;;;;;0.00;0.00;;;19.90;72.20;;;;;;4990199;28;20100;-67
2022/07/09 10:01:24;;;;;;;0.00;0.00;;;19.80;73.00;;;;;;4990798;28;20108;-67
2022/07/09 10:03:50;;;;;;;0.00;0.00;;;19.80;73.10;;;;;;4977831;28;20138;-67
2022/07/09 10:06:16;;;;;;;0.00;0.00;;;19.90;72.00;;;;;;4971407;28;20110;-70
2022/07/09 10:08:41;;;;;;;0.03;0.03;;;19.80;70.80;;;;;;4984078;28;20042;-70
2022/07/09 10:11:07;;;;;;;0.20;0.20;;;19.90;72.80;;;;;;4989998;28;20120;-70
2022/07/09 10:13:33;;;;;;;0.00;0.00;;;20.10;72.00;;;;;;4990321;28;20124;-70
2022/07/09 10:15:59;;;;;;;0.00;0.00;;;20.10;72.10;;;;;;4987647;28;20058;-70
2022/07/09 10:18:25;;;;;;;0.00;0.00;;;20.10;71.70;;;;;;4989496;28;20116;-70
2022/07/09 10:20:56;;;;;;;0.00;0.00;;;20.10;70.40;;;;;;4990064;28;20058;-70
2022/07/09 10:23:26;;;;;;;;;;;20.10;71.50;;;;;;4975777;28;20488;-70
2022/07/09 10:25:55;;;;;;;0.00;0.00;;;20.00;73.00;;;;;;4979385;28;19922;-70
2022/07/09 10:28:22;;;;;;;0.00;0.00;;;19.90;72.90;;;;;;4989380;28;20073;-69
2022/07/09 10:30:48;;;;;;;0.25;0.08;;;19.60;73.70;;;;;;4990590;28;20100;-70
2022/07/09 10:33:35;;;;;;;0.00;0.00;;;19.60;73.50;;;;;;4986656;28;20134;-70
2022/07/09 10:36:13;;;;;;;0.00;0.00;;;19.40;73.50;;;;;;4988945;28;20054;-70
2022/07/09 10:38:38;;;;;;;0.00;0.00;;;19.30;73.60;;;;;;4987617;28;20074;-69
2022/07/09 10:41:04;;;;;;;0.00;0.00;;;19.30;73.90;;;;;;4988673;28;20494;-68
2022/07/09 10:43:43;;;;;;;0.85;0.57;;;19.20;74.10;;;;;;4989018;28;20439;-69
2022/07/09 10:46:13;;;;;;;0.00;0.00;;;19.20;74.00;;;;;;4988001;28;20129;-67
2022/07/09 10:48:39;;;;;;;0.00;0.00;;;19.10;74.00;;;;;;4988481;28;20042;-67
2022/07/09 10:51:05;;;;;;;0.00;0.00;;;19.00;73.70;;;;;;4989399;28;20133;-68
2022/07/09 10:53:31;;;;;;;0.10;0.10;;;19.00;73.50;;;;;;4988451;28;20503;-68
2022/07/09 10:55:56;;;;;;;0.00;0.00;;;18.90;73.30;;;;;;4989116;28;20057;-69
2022/07/09 10:58:24;;;;;;;0.00;0.00;;;18.90;73.50;;;;;;4984905;28;20125;-68
2022/07/09 11:01:02;;;;;;;0.00;0.00;;;19.00;73.00;;;;;;4989312;28;20080;-69
2022/07/09 11:03:30;;;;;;;0.00;0.00;;;19.10;71.30;;;;;;4988860;28;20088;-70
2022/07/09 11:05:57;;;;;;;0.00;0.00;;;19.10;70.20;;;;;;4981868;28;20086;-69
2022/07/09 11:08:23;;;;;;;0.00;0.00;;;19.10;70.00;;;;;;4970595;28;20054;-68
2022/07/09 11:10:49;;;;;;;0.00;0.00;;;19.10;69.60;;;;;;4986712;28;20041;-68
2022/07/09 11:13:15;;;;;;;0.20;0.20;;;19.20;69.50;;;;;;4970525;28;20047;-69
2022/07/09 11:15:41;;;;;;;0.00;0.00;;;19.20;69.40;;;;;;4984229;28;20129;-68
2022/07/09 11:18:13;;;;;;;0.00;0.00;;;19.40;68.50;;;;;;4989264;28;20125;-66
2022/07/09 11:20:44;;;;;;;0.10;0.10;;;19.50;66.80;;;;;;4989015;28;20081;-67
2022/07/09 11:23:10;;;;;;;0.00;0.00;;;19.50;66.10;;;;;;4989364;28;20518;-67
2022/07/09 11:25:36;;;;;;;0.00;0.00;;;19.50;64.90;;;;;;4989321;28;20038;-66
2022/07/09 11:28:02;;;;;;;0.00;0.00;;;19.40;63.30;;;;;;4989475;28;20600;-67
2022/07/09 11:30:29;;;;;;;0.00;0.00;;;19.40;63.10;;;;;;4985618;28;20077;-67
2022/07/09 11:32:55;;;;;;;0.17;0.10;;;19.50;63.50;;;;;;4978512;28;20050;-67
2022/07/09 11:35:32;;;;;;;0.00;0.00;;;19.60;62.40;;;;;;4975385;28;20039;-67
2022/07/09 11:37:59;;;;;;;0.00;0.00;;;19.70;62.30;;;;;;4991372;28;20519;-68
2022/07/09 11:40:26;;;;;;;0.00;0.00;;;19.70;62.40;;;;;;4991866;28;20066;-66
2022/07/09 11:42:52;;;;;;;0.52;0.32;;;19.80;62.20;;;;;;4989542;28;20443;-66
2022/07/09 11:45:29;;;;;;;0.00;0.00;;;19.90;61.70;;;;;;4986987;28;20154;-66
2022/07/09 11:48:09;;;;;;;0.10;0.10;;;19.90;61.60;;;;;;4991354;28;20058;-66
2022/07/09 11:50:45;;;;;;;0.00;0.00;;;20.00;60.90;;;;;;4980071;28;20046;-66
2022/07/09 11:53:25;;;;;;;0.00;0.00;;;20.10;60.40;;;;;;4993186;28;20061;-66
2022/07/09 11:56:04;;;;;;;0.00;0.00;;;20.10;59.50;;;;;;4992638;28;20050;-66
2022/07/09 11:58:30;;;;;;;0.00;0.00;;;20.20;59.60;;;;;;4989512;28;20117;-66
2022/07/09 12:00:59;;;;;;;0.00;0.00;;;20.20;59.50;;;;;;4981098;28;20126;-66
2022/07/09 12:03:26;;;;;;;0.30;0.30;;;20.30;58.10;;;;;;4974512;28;20082;-67
2022/07/09 12:05:52;;;;;;;0.10;0.10;;;20.30;59.60;;;;;;4992288;28;20448;-66
2022/07/09 12:08:29;;;;;;;0.00;0.00;;;20.30;58.60;;;;;;5005810;28;20081;-66
2022/07/09 12:10:56;;;;;;;0.00;0.00;;;20.40;59.70;;;;;;5002438;28;20046;-66
2022/07/09 12:13:22;;;;;;;0.00;0.00;;;20.50;59.60;;;;;;4991863;28;20121;-66
2022/07/09 12:15:47;;;;;;;0.10;0.10;;;20.50;59.40;;;;;;4992189;28;20129;-67
2022/07/09 12:18:13;;;;;;;0.00;0.00;;;20.40;59.60;;;;;;4990698;28;20133;-66
2022/07/09 12:20:38;;;;;;;0.10;0.10;;;20.40;58.50;;;;;;4992173;28;20122;-66
2022/07/09 12:23:04;;;;;;;0.00;0.00;;;20.50;58.20;;;;;;4988965;28;20074;-66
2022/07/09 12:25:30;;;;;;;0.00;0.00;;;20.40;56.90;;;;;;4991551;28;20737;-66
2022/07/09 12:27:56;;;;;;;0.00;0.00;;;20.40;57.30;;;;;;4992306;28;20053;-67
2022/07/09 12:30:21;;;;;;;0.00;0.00;;;20.50;57.60;;;;;;4986706;28;20033;-66
2022/07/09 12:32:47;;;;;;;0.00;0.00;;;20.60;59.00;;;;;;5008668;28;20130;-67
2022/07/09 12:35:13;;;;;;;0.00;0.00;;;20.70;58.40;;;;;;4993539;28;20488;-67
2022/07/09 12:37:40;;;;;;;2.42;1.48;;;20.60;58.40;;;;;;4988669;28;20125;-67
2022/07/09 12:40:08;;;;;;;0.00;0.00;;;20.70;57.30;;;;;;5000197;28;20050;-67
2022/07/09 12:42:33;;;;;;;0.00;0.00;;;20.50;56.10;;;;;;5012269;28;20494;-66
2022/07/09 12:44:59;;;;;;;0.00;0.00;;;20.30;57.70;;;;;;4995553;28;20066;-67